Terminal Aerodrome Forecast
Issued by NWS State College, PA

Home | Current Version | Previous Version | Text Only | Print | Product List | Glossary On
Versions: 1 2 3 4 5 6 7 8 9 10 11 12 13 14 15 16 17 18 19 20 21 22 23 24 25 26 27 28 29 30 31 32 33 34 35 36 37 38 39 40 41 42 43 44 45 46 47 48 49 50
000
FTUS41 KCTP 250815 AAC
TAFMDT
TAF AMD
KMDT 250815Z 2508/2606 VRB03KT 6SM BR SCT025 BKN070
      TEMPO 2509/2512 2SM BR
     FM251300 27006KT 6SM HZ BKN040
     FM251800 26008G16KT P6SM VCSH BKN050
     FM252300 29007KT 6SM -SHRA BKN035 PROB30 2523/2604 2SM -TSRA
      OVC030CB=

USA.gov is the U.S. government's official web portal to all federal, state and local government web resources and services.